Time;durP1;ratioP1;P1;durP2;ratioP2;P2;SDS_P1;SDS_P2;PMS_P1;PMS_P2;Temp;Humidity;BMP_temperature;BMP_pressure;BME280_temperature;BME280_humidity;BME280_pressure;Samples;Min_cycle;Max_cycle;Signal;HPM_P1;HPM_P2
2022/12/01 00:02:21;;;;;;;50.67;28.85;;;4.50;99.90;;;;;;5073224;28;20201;-60
2022/12/01 00:04:48;;;;;;;49.45;31.10;;;4.50;99.90;;;;;;5075226;28;20688;-60
2022/12/01 00:07:15;;;;;;;50.15;29.30;;;4.40;99.90;;;;;;5078211;28;20552;-60
2022/12/01 00:12:28;;;;;;;53.10;30.17;;;4.40;99.90;;;;;;5075318;28;20175;-61
2022/12/01 00:14:59;;;;;;;47.80;29.88;;;4.40;99.90;;;;;;5073316;28;20227;-59
2022/12/01 00:17:27;;;;;;;57.10;30.15;;;4.50;99.90;;;;;;5073070;28;20672;-61
2022/12/01 00:19:54;;;;;;;53.65;29.23;;;4.40;99.90;;;;;;5073065;28;20830;-61
2022/12/01 00:22:21;;;;;;;48.03;28.35;;;4.40;99.90;;;;;;5072831;28;20214;-60
2022/12/01 00:24:47;;;;;;;49.17;30.80;;;4.40;99.90;;;;;;5073107;28;20201;-60
2022/12/01 00:27:14;;;;;;;50.83;30.52;;;4.40;99.90;;;;;;5076818;28;20228;-60
2022/12/01 00:29:42;;;;;;;51.53;31.77;;;4.40;99.90;;;;;;5078180;28;20221;-59
2022/12/01 00:32:09;;;;;;;55.40;32.20;;;4.40;99.90;;;;;;5077071;28;20208;-60
2022/12/01 00:34:36;;;;;;;57.70;32.13;;;4.40;99.90;;;;;;5077084;28;20589;-61
2022/12/01 00:37:03;;;;;;;53.70;30.55;;;4.40;99.90;;;;;;5077145;28;20209;-61
2022/12/01 00:39:30;;;;;;;52.10;30.50;;;4.40;99.90;;;;;;5077469;28;20221;-60
2022/12/01 00:41:57;;;;;;;56.50;33.45;;;4.30;99.90;;;;;;5077131;28;20186;-61
2022/12/01 00:44:23;;;;;;;54.13;31.95;;;4.30;99.90;;;;;;5076521;28;20660;-61
2022/12/01 00:46:51;;;;;;;50.25;30.27;;;4.30;99.90;;;;;;5076831;28;20212;-61
2022/12/01 00:49:18;;;;;;;50.60;31.23;;;4.30;99.90;;;;;;5076435;28;20696;-61
2022/12/01 00:51:45;;;;;;;55.22;30.75;;;4.30;99.90;;;;;;5076938;28;20205;-61
2022/12/01 00:54:12;;;;;;;61.72;32.75;;;4.30;99.90;;;;;;5076778;28;20205;-61
2022/12/01 00:56:38;;;;;;;61.95;33.83;;;4.30;99.90;;;;;;5076574;28;20204;-61
2022/12/01 00:59:05;;;;;;;53.78;31.20;;;4.30;99.90;;;;;;5076225;28;20561;-62
2022/12/01 01:01:32;;;;;;;58.72;31.70;;;4.30;99.90;;;;;;5076659;28;20216;-61
2022/12/01 01:04:00;;;;;;;62.90;32.20;;;4.30;99.90;;;;;;5076450;28;20205;-61
2022/12/01 01:06:26;;;;;;;63.40;34.13;;;4.30;99.90;;;;;;5076281;28;20593;-60
2022/12/01 01:08:53;;;;;;;56.22;33.65;;;4.30;99.90;;;;;;5076322;28;20561;-60
2022/12/01 01:11:20;;;;;;;57.08;34.20;;;4.30;99.90;;;;;;5076162;28;20228;-61
2022/12/01 01:13:47;;;;;;;53.63;31.63;;;4.30;99.90;;;;;;5076180;28;20209;-61
2022/12/01 01:16:15;;;;;;;55.53;31.33;;;4.30;99.90;;;;;;5076168;28;20228;-61
2022/12/01 01:18:42;;;;;;;51.25;30.08;;;4.30;99.90;;;;;;5076854;28;20205;-61
2022/12/01 01:21:13;;;;;;;68.50;35.13;;;4.20;99.90;;;;;;5079373;28;20229;-61
2022/12/01 01:23:40;;;;;;;56.80;31.92;;;4.20;99.90;;;;;;5079201;28;20189;-61
2022/12/01 01:26:09;;;;;;;59.67;32.95;;;4.30;99.90;;;;;;5078187;28;20250;-60
2022/12/01 01:28:35;;;;;;;62.75;34.92;;;4.30;99.90;;;;;;5078112;28;20197;-61
2022/12/01 01:31:05;;;;;;;65.70;36.15;;;4.20;99.90;;;;;;5078978;28;20225;-61
2022/12/01 01:33:32;;;;;;;61.05;33.08;;;4.30;99.90;;;;;;5077848;28;20205;-60
2022/12/01 01:35:59;;;;;;;54.08;32.17;;;4.30;99.90;;;;;;5076571;28;20248;-61
2022/12/01 01:38:28;;;;;;;57.55;33.90;;;4.30;99.90;;;;;;5075416;28;20197;-60
2022/12/01 01:40:55;;;;;;;60.95;35.45;;;4.30;99.90;;;;;;5077342;28;20229;-61
2022/12/01 01:43:41;;;;;;;56.47;30.90;;;4.30;99.90;;;;;;5076885;28;20691;-60
2022/12/01 01:46:10;;;;;;;61.70;35.22;;;4.30;99.90;;;;;;5075813;28;20178;-61
2022/12/01 01:48:38;;;;;;;61.78;33.00;;;4.30;99.90;;;;;;5075831;28;20200;-61
2022/12/01 01:51:06;;;;;;;55.38;32.95;;;4.30;99.90;;;;;;5075666;28;20540;-62
2022/12/01 01:53:34;;;;;;;61.17;34.03;;;4.30;99.90;;;;;;5075378;28;20211;-61
2022/12/01 01:56:02;;;;;;;59.17;31.95;;;4.30;99.90;;;;;;5075423;28;20582;-61
2022/12/01 01:58:30;;;;;;;55.55;32.38;;;4.30;99.90;;;;;;5075456;28;20330;-61
2022/12/01 02:00:57;;;;;;;55.38;33.78;;;4.20;99.90;;;;;;5075663;28;20232;-61
2022/12/01 02:03:24;;;;;;;57.58;33.50;;;4.20;99.90;;;;;;5075439;28;20209;-60
2022/12/01 02:05:51;;;;;;;58.05;35.28;;;4.20;99.90;;;;;;5075479;28;20197;-61
2022/12/01 02:08:18;;;;;;;56.20;32.40;;;4.20;99.90;;;;;;5075076;28;20570;-61
2022/12/01 02:11:07;;;;;;;56.17;32.67;;;4.20;99.90;;;;;;5075349;28;20252;-61
2022/12/01 02:13:41;;;;;;;57.83;34.35;;;4.20;99.90;;;;;;5074911;28;20672;-61
2022/12/01 02:16:16;;;;;;;58.25;34.58;;;4.20;99.90;;;;;;5075287;28;20211;-60
2022/12/01 02:18:52;;;;;;;58.88;33.00;;;4.20;99.90;;;;;;5075197;28;20191;-61
2022/12/01 02:21:32;;;;;;;54.63;33.05;;;4.20;99.90;;;;;;5075266;28;20224;-62
2022/12/01 02:24:33;;;;;;;64.22;34.60;;;4.20;99.90;;;;;;5075722;28;20204;-61
2022/12/01 02:27:04;;;;;;;63.33;34.00;;;4.20;99.90;;;;;;5074617;28;20572;-61
2022/12/01 02:30:01;;;;;;;64.25;35.95;;;4.20;99.90;;;;;;5074713;28;20709;-61
2022/12/01 02:32:33;;;;;;;62.63;35.67;;;4.20;99.90;;;;;;5059170;28;20704;-61
2022/12/01 02:35:08;;;;;;;61.42;33.42;;;4.20;99.90;;;;;;5074870;28;20209;-62
2022/12/01 02:37:43;;;;;;;59.03;34.10;;;4.20;99.90;;;;;;5074788;28;20185;-61
2022/12/01 02:40:15;;;;;;;59.63;34.17;;;4.20;99.90;;;;;;5074515;28;20282;-61
2022/12/01 02:42:51;;;;;;;60.53;32.20;;;4.20;99.90;;;;;;5074663;28;20196;-62
2022/12/01 02:45:27;;;;;;;55.80;32.70;;;4.20;99.90;;;;;;5074825;28;20215;-61
2022/12/01 02:47:59;;;;;;;59.25;32.53;;;4.20;99.90;;;;;;5074729;28;20255;-62
2022/12/01 02:50:29;;;;;;;73.65;36.50;;;4.20;99.90;;;;;;5074191;28;20300;-62
2022/12/01 02:52:56;;;;;;;67.05;36.03;;;4.20;99.90;;;;;;5074571;28;20201;-61
2022/12/01 02:55:23;;;;;;;59.58;34.92;;;4.20;99.90;;;;;;5074650;28;20708;-61
2022/12/01 02:57:50;;;;;;;71.38;35.58;;;4.20;99.90;;;;;;5075616;28;20211;-61
2022/12/01 03:00:18;;;;;;;69.78;37.08;;;4.10;99.90;;;;;;5074362;28;20228;-61
2022/12/01 03:02:54;;;;;;;66.32;36.13;;;4.10;99.90;;;;;;5076194;28;20591;-61
2022/12/01 03:05:28;;;;;;;58.92;32.20;;;4.20;99.90;;;;;;5076277;28;20184;-61
2022/12/01 03:08:02;;;;;;;60.55;34.60;;;4.10;99.90;;;;;;5076109;28;20192;-60
2022/12/01 03:10:42;;;;;;;61.70;34.05;;;4.10;99.90;;;;;;5074352;28;20735;-61
2022/12/01 03:13:20;;;;;;;65.55;35.80;;;4.20;99.90;;;;;;5074360;28;20189;-61
2022/12/01 03:15:57;;;;;;;65.50;35.42;;;4.10;99.90;;;;;;5074842;28;20216;-60
2022/12/01 03:18:32;;;;;;;56.05;32.38;;;4.10;99.90;;;;;;5075054;28;20192;-61
2022/12/01 03:21:05;;;;;;;59.28;32.55;;;4.10;99.90;;;;;;5075256;28;20310;-60
2022/12/01 03:23:36;;;;;;;69.10;35.63;;;4.20;99.90;;;;;;5074715;28;20188;-61
2022/12/01 03:26:06;;;;;;;62.63;35.17;;;4.20;99.90;;;;;;5074171;28;20177;-61
2022/12/01 03:28:37;;;;;;;67.40;35.70;;;4.10;99.90;;;;;;5074143;28;20201;-61
2022/12/01 03:31:10;;;;;;;80.13;37.15;;;4.10;99.90;;;;;;5073852;28;20224;-61
2022/12/01 03:33:43;;;;;;;73.30;38.63;;;4.10;99.90;;;;;;5074020;28;20190;-61
2022/12/01 03:36:15;;;;;;;70.60;37.60;;;4.00;99.90;;;;;;5073708;28;20209;-61
2022/12/01 03:38:46;;;;;;;89.03;38.55;;;4.00;99.90;;;;;;5073865;28;20208;-63
2022/12/01 03:41:18;;;;;;;74.03;37.75;;;4.00;99.90;;;;;;5073392;28;20243;-62
2022/12/01 03:43:51;;;;;;;76.45;39.40;;;4.00;99.90;;;;;;5074384;28;20291;-60
2022/12/01 03:46:25;;;;;;;85.72;40.30;;;4.00;99.90;;;;;;5073597;28;20192;-60
2022/12/01 03:48:53;;;;;;;85.60;41.33;;;4.10;99.90;;;;;;5073482;28;20192;-61
2022/12/01 03:51:30;;;;;;;78.45;37.72;;;4.10;99.90;;;;;;5073513;28;20229;-61
2022/12/01 03:54:02;;;;;;;69.80;38.75;;;4.10;99.90;;;;;;5073857;28;20185;-61
2022/12/01 03:56:36;;;;;;;93.05;40.35;;;4.00;99.90;;;;;;5073364;28;20213;-61
2022/12/01 03:59:06;;;;;;;91.53;42.05;;;4.00;99.90;;;;;;5073353;28;20190;-62
2022/12/01 04:01:33;;;;;;;90.53;39.95;;;4.00;99.90;;;;;;5072760;28;20250;-61
2022/12/01 04:04:07;;;;;;;82.03;39.50;;;4.00;99.90;;;;;;5073053;28;20208;-62
2022/12/01 04:06:36;;;;;;;76.72;37.90;;;4.00;99.90;;;;;;5073103;28;20550;-61
2022/12/01 04:10:39;;;;;;;81.95;37.65;;;3.90;99.90;;;;;;5091081;28;20562;-61
2022/12/01 04:13:10;;;;;;;75.03;38.20;;;4.00;99.90;;;;;;5090533;28;20621;-61
2022/12/01 04:15:38;;;;;;;77.65;38.20;;;4.00;99.90;;;;;;5090959;28;20257;-61
2022/12/01 04:18:05;;;;;;;74.03;38.55;;;4.00;99.90;;;;;;5090997;28;20200;-61
2022/12/01 04:20:32;;;;;;;75.30;39.22;;;3.90;99.90;;;;;;5091445;28;20239;-60
2022/12/01 04:22:58;;;;;;;76.65;37.25;;;3.90;99.90;;;;;;5092810;28;20203;-60
2022/12/01 04:25:25;;;;;;;76.38;38.85;;;3.90;99.90;;;;;;5091255;28;20219;-60
2022/12/01 04:27:53;;;;;;;77.95;38.55;;;3.80;99.90;;;;;;5091410;28;20226;-61
2022/12/01 04:30:20;;;;;;;75.90;39.38;;;3.80;99.90;;;;;;5090656;28;20227;-61
2022/12/01 04:32:47;;;;;;;77.47;38.45;;;3.70;99.90;;;;;;5090554;28;20200;-61
2022/12/01 04:35:14;;;;;;;79.13;35.75;;;3.70;99.90;;;;;;5090431;28;20200;-61
2022/12/01 04:37:40;;;;;;;94.18;38.15;;;3.70;99.90;;;;;;5090180;28;20811;-61
2022/12/01 04:40:08;;;;;;;76.43;37.10;;;3.70;99.90;;;;;;5090244;28;20286;-60
2022/12/01 04:42:35;;;;;;;80.07;37.42;;;3.80;99.90;;;;;;5090437;28;20197;-62
2022/12/01 04:45:03;;;;;;;75.90;35.95;;;3.70;99.90;;;;;;5090682;28;20208;-62
2022/12/01 04:47:30;;;;;;;79.97;38.15;;;3.70;99.90;;;;;;5090201;28;20204;-61
2022/12/01 04:49:57;;;;;;;65.68;34.25;;;3.70;99.90;;;;;;5090333;28;20228;-61
2022/12/01 04:52:24;;;;;;;61.58;32.83;;;3.60;99.90;;;;;;5090372;28;20204;-61
2022/12/01 04:54:50;;;;;;;69.82;32.38;;;3.60;99.90;;;;;;5090069;28;20607;-61
2022/12/01 04:57:17;;;;;;;80.30;37.80;;;3.60;99.90;;;;;;5089963;28;20204;-61
2022/12/01 04:59:44;;;;;;;69.85;34.00;;;3.60;99.90;;;;;;5090203;28;20303;-62
2022/12/01 05:02:12;;;;;;;65.80;34.17;;;3.50;99.90;;;;;;5090052;28;20207;-61
2022/12/01 05:04:40;;;;;;;72.38;37.45;;;3.50;99.90;;;;;;5078932;28;20288;-61
2022/12/01 05:07:07;;;;;;;68.72;34.10;;;3.40;99.90;;;;;;5070699;28;20200;-62
2022/12/01 05:09:34;;;;;;;64.63;33.80;;;3.50;99.90;;;;;;5074765;28;20643;-62
2022/12/01 05:12:01;;;;;;;74.55;34.90;;;3.50;99.90;;;;;;5089741;28;20212;-60
2022/12/01 05:14:28;;;;;;;76.32;35.45;;;3.40;99.90;;;;;;5090090;28;20208;-61
2022/12/01 05:16:56;;;;;;;80.72;34.55;;;3.40;99.90;;;;;;5089404;28;20222;-60
2022/12/01 05:22:09;;;;;;;72.45;33.88;;;3.40;99.90;;;;;;5075662;28;20184;-60
2022/12/01 05:24:36;;;;;;;71.75;34.72;;;3.40;99.90;;;;;;5076385;28;20205;-62
2022/12/01 05:27:02;;;;;;;77.55;33.83;;;3.30;99.90;;;;;;5076473;28;20201;-61
2022/12/01 05:29:31;;;;;;;73.63;36.45;;;3.30;99.90;;;;;;5061843;28;20237;-61
2022/12/01 05:31:58;;;;;;;78.47;35.53;;;3.30;99.90;;;;;;5075684;28;20683;-61
2022/12/01 05:34:26;;;;;;;72.47;34.17;;;3.40;99.90;;;;;;5066757;28;20203;-60
2022/12/01 05:36:53;;;;;;;72.07;34.05;;;3.40;99.90;;;;;;5056362;28;20212;-61
2022/12/01 05:39:20;;;;;;;60.05;31.10;;;3.40;99.90;;;;;;5055783;28;20202;-59
2022/12/01 05:41:46;;;;;;;70.72;34.65;;;3.50;99.90;;;;;;5055789;28;20206;-61
2022/12/01 05:44:13;;;;;;;75.10;34.90;;;3.40;99.90;;;;;;5056316;28;20209;-61
2022/12/01 05:46:40;;;;;;;72.57;36.83;;;3.40;99.90;;;;;;5056527;28;20284;-61
2022/12/01 05:49:07;;;;;;;79.13;36.65;;;3.40;99.90;;;;;;5058081;28;20593;-60
2022/12/01 05:51:35;;;;;;;81.60;36.30;;;3.40;99.90;;;;;;5056917;28;20209;-61
2022/12/01 05:54:02;;;;;;;88.80;36.78;;;3.40;99.90;;;;;;5056993;28;20221;-61
2022/12/01 05:56:29;;;;;;;79.93;36.42;;;3.30;99.90;;;;;;5057394;28;20549;-62
2022/12/01 05:58:55;;;;;;;88.07;36.58;;;3.30;99.90;;;;;;5056899;28;20201;-61
2022/12/01 06:01:22;;;;;;;72.60;33.58;;;3.20;99.90;;;;;;5056856;28;20226;-61
2022/12/01 06:03:49;;;;;;;71.05;34.78;;;3.20;99.90;;;;;;5056937;28;20208;-61
2022/12/01 06:06:16;;;;;;;74.72;33.60;;;3.20;99.90;;;;;;5056454;28;20574;-60
2022/12/01 06:08:44;;;;;;;70.30;33.08;;;3.10;99.90;;;;;;5056166;28;20387;-61
2022/12/01 06:11:11;;;;;;;84.43;33.72;;;3.10;99.90;;;;;;5056878;28;20232;-60
2022/12/01 06:13:38;;;;;;;65.55;31.25;;;3.10;99.90;;;;;;5057944;28;20202;-60
2022/12/01 06:16:06;;;;;;;59.42;29.00;;;3.10;99.90;;;;;;5058218;28;20209;-61
2022/12/01 06:18:35;;;;;;;68.18;33.38;;;3.10;99.90;;;;;;5058459;28;20561;-61
2022/12/01 06:21:02;;;;;;;71.60;31.42;;;3.10;99.90;;;;;;5057364;28;20717;-61
2022/12/01 06:23:29;;;;;;;70.35;35.00;;;3.10;99.90;;;;;;5057714;28;20608;-59
2022/12/01 06:25:57;;;;;;;67.30;29.60;;;3.00;99.90;;;;;;5055429;28;20201;-62
2022/12/01 06:28:24;;;;;;;78.25;32.28;;;3.00;99.90;;;;;;5055153;28;20210;-62
2022/12/01 06:30:51;;;;;;;69.65;31.30;;;3.00;99.90;;;;;;5054534;28;20312;-61
2022/12/01 06:33:18;;;;;;;66.95;29.88;;;3.00;99.90;;;;;;5053527;28;20209;-60
2022/12/01 06:35:45;;;;;;;56.70;28.52;;;3.00;99.90;;;;;;5055113;28;20202;-61
2022/12/01 06:38:11;;;;;;;63.00;30.42;;;2.90;99.90;;;;;;5055320;28;20206;-61
2022/12/01 06:40:38;;;;;;;64.53;26.88;;;2.90;99.90;;;;;;5055117;28;20599;-62
2022/12/01 06:43:06;;;;;;;66.90;29.90;;;2.90;99.90;;;;;;5055160;28;20206;-62
2022/12/01 06:45:33;;;;;;;62.95;28.67;;;2.90;99.90;;;;;;5055890;28;20202;-62
2022/12/01 06:48:00;;;;;;;71.63;29.45;;;2.90;99.90;;;;;;5057317;28;20197;-62
2022/12/01 06:50:26;;;;;;;66.00;28.17;;;2.90;99.90;;;;;;5056462;28;20233;-61
2022/12/01 06:52:55;;;;;;;70.53;29.35;;;2.90;99.90;;;;;;5055290;28;20202;-61
2022/12/01 06:55:21;;;;;;;63.17;28.58;;;2.90;99.90;;;;;;5055193;28;20208;-63
2022/12/01 06:57:48;;;;;;;63.85;29.27;;;2.90;99.90;;;;;;5054798;28;20296;-61
2022/12/01 07:00:17;;;;;;;50.20;26.77;;;3.00;99.90;;;;;;5054606;28;20222;-62
2022/12/01 07:02:44;;;;;;;53.97;26.98;;;3.00;99.90;;;;;;5054622;28;20206;-61
2022/12/01 07:05:11;;;;;;;57.78;26.55;;;3.00;99.90;;;;;;5055115;28;20201;-61
2022/12/01 07:07:38;;;;;;;53.80;27.33;;;3.00;99.90;;;;;;5054077;28;20678;-62
2022/12/01 07:10:07;;;;;;;52.05;27.35;;;3.10;99.90;;;;;;5053819;28;20229;-60
2022/12/01 07:12:34;;;;;;;54.92;27.42;;;3.10;99.90;;;;;;5054178;28;20201;-61
2022/12/01 07:15:01;;;;;;;57.00;26.63;;;3.10;99.90;;;;;;5054163;28;20228;-62
2022/12/01 07:17:30;;;;;;;49.88;24.75;;;3.10;99.90;;;;;;5053836;28;20658;-61
2022/12/01 07:19:57;;;;;;;57.72;27.75;;;3.10;99.90;;;;;;5053460;28;20587;-61
2022/12/01 07:22:24;;;;;;;61.70;27.90;;;3.00;99.90;;;;;;5054243;28;20292;-61
2022/12/01 07:24:50;;;;;;;48.58;26.13;;;3.00;99.90;;;;;;5053801;28;20202;-62
2022/12/01 07:27:17;;;;;;;55.60;26.98;;;3.00;99.90;;;;;;5053344;28;20201;-62
2022/12/01 07:29:44;;;;;;;60.17;28.42;;;3.10;99.90;;;;;;5053863;28;20225;-63
2022/12/01 07:32:11;;;;;;;59.22;26.83;;;3.10;99.90;;;;;;5053391;28;20202;-61
2022/12/01 07:34:39;;;;;;;53.03;25.85;;;3.10;99.90;;;;;;5053455;28;20213;-62
2022/12/01 07:37:06;;;;;;;53.75;26.38;;;3.10;99.90;;;;;;5054280;28;20568;-61
2022/12/01 07:39:32;;;;;;;56.90;29.10;;;3.10;99.90;;;;;;5053920;28;20222;-58
2022/12/01 07:41:59;;;;;;;53.92;25.13;;;3.10;99.90;;;;;;5054333;28;20585;-60
2022/12/01 07:44:26;;;;;;;56.70;26.20;;;3.10;99.90;;;;;;5053825;28;20213;-62
2022/12/01 07:46:53;;;;;;;61.72;25.83;;;3.10;99.90;;;;;;5053575;28;20205;-61
2022/12/01 07:49:20;;;;;;;52.88;27.40;;;3.20;99.90;;;;;;5055046;28;20204;-61
2022/12/01 07:51:48;;;;;;;56.28;25.63;;;3.20;99.90;;;;;;5055274;28;20213;-62
2022/12/01 07:54:16;;;;;;;52.30;26.63;;;3.10;99.90;;;;;;5054079;28;20209;-61
2022/12/01 07:56:43;;;;;;;61.47;29.05;;;3.20;99.90;;;;;;5054631;28;20692;-62
2022/12/01 07:59:10;;;;;;;59.53;27.70;;;3.20;99.90;;;;;;5054369;28;20201;-62
2022/12/01 08:01:38;;;;;;;67.30;30.42;;;3.20;99.90;;;;;;5053583;28;20197;-62
2022/12/01 08:04:05;;;;;;;73.97;32.05;;;3.30;99.90;;;;;;5055094;28;20197;-60
2022/12/01 08:06:32;;;;;;;78.80;32.42;;;3.30;99.90;;;;;;5055642;28;20665;-60
2022/12/01 08:09:00;;;;;;;75.20;33.10;;;3.30;99.90;;;;;;5058844;28;20773;-61
2022/12/01 08:11:29;;;;;;;79.60;33.28;;;3.20;99.90;;;;;;5057680;28;20260;-61
2022/12/01 08:13:56;;;;;;;83.47;32.97;;;3.10;99.90;;;;;;5057826;28;20646;-61
2022/12/01 08:16:24;;;;;;;81.65;33.40;;;3.10;99.90;;;;;;5058171;28;20201;-61
2022/12/01 08:18:51;;;;;;;72.63;31.48;;;3.10;99.90;;;;;;5056533;28;20201;-61
2022/12/01 08:21:20;;;;;;;77.03;32.88;;;3.10;99.90;;;;;;5057057;28;20244;-62
2022/12/01 08:23:48;;;;;;;78.60;31.23;;;3.10;99.90;;;;;;5056921;28;20205;-60
2022/12/01 08:26:18;;;;;;;66.70;29.05;;;3.10;99.90;;;;;;5057163;28;20202;-61
2022/12/01 08:28:45;;;;;;;62.30;28.50;;;3.00;99.90;;;;;;5056566;28;20277;-60
2022/12/01 08:31:17;;;;;;;60.13;28.25;;;3.00;99.90;;;;;;5055430;28;20225;-61
2022/12/01 08:33:44;;;;;;;59.45;27.40;;;3.00;99.90;;;;;;5056127;28;20190;-60
2022/12/01 08:36:11;;;;;;;67.95;32.20;;;3.10;99.90;;;;;;5054929;28;20206;-60
2022/12/01 08:38:38;;;;;;;66.47;26.70;;;3.00;99.90;;;;;;5055259;28;20198;-61
2022/12/01 08:41:08;;;;;;;65.50;29.27;;;3.00;99.90;;;;;;5054798;28;20225;-61
2022/12/01 08:43:38;;;;;;;69.43;30.45;;;3.00;99.90;;;;;;5055308;28;20578;-61
2022/12/01 08:46:06;;;;;;;78.25;30.98;;;3.00;99.90;;;;;;5056094;28;20236;-60
2022/12/01 08:48:33;;;;;;;59.63;29.13;;;3.00;99.90;;;;;;5055401;28;20209;-60
2022/12/01 08:51:05;;;;;;;67.72;29.40;;;3.00;99.90;;;;;;5053674;28;20222;-60
2022/12/01 08:53:34;;;;;;;71.18;31.35;;;2.90;99.90;;;;;;5054039;28;20206;-59
2022/12/01 08:56:01;;;;;;;74.10;32.08;;;3.00;99.90;;;;;;5055529;28;20202;-62
2022/12/01 08:58:29;;;;;;;64.15;30.15;;;3.00;99.90;;;;;;5058884;28;20285;-61
2022/12/01 09:01:02;;;;;;;65.80;27.88;;;3.00;99.90;;;;;;5058559;28;20218;-61
2022/12/01 09:03:30;;;;;;;62.65;28.63;;;3.00;99.90;;;;;;5058653;28;20244;-61
2022/12/01 09:06:02;;;;;;;69.13;30.30;;;3.00;99.90;;;;;;5059336;28;20571;-60
2022/12/01 09:08:32;;;;;;;70.80;29.30;;;3.10;99.90;;;;;;5060359;28;20190;-60
2022/12/01 09:11:00;;;;;;;66.93;30.88;;;3.10;99.90;;;;;;5059416;28;20275;-61
2022/12/01 09:13:28;;;;;;;64.55;30.42;;;3.10;99.90;;;;;;5059601;28;20240;-61
2022/12/01 09:15:56;;;;;;;68.20;28.85;;;3.10;99.90;;;;;;5058149;28;20206;-61
2022/12/01 09:18:24;;;;;;;70.60;31.20;;;3.10;99.90;;;;;;5057115;28;20208;-62
2022/12/01 09:20:51;;;;;;;69.40;29.70;;;3.10;99.90;;;;;;5058141;28;20213;-61
2022/12/01 09:23:18;;;;;;;52.78;28.15;;;3.00;99.90;;;;;;5058533;28;20197;-59
2022/12/01 09:25:45;;;;;;;61.40;27.40;;;3.00;99.90;;;;;;5058208;28;20265;-61
2022/12/01 09:28:12;;;;;;;62.58;27.80;;;3.00;99.90;;;;;;5058261;28;20209;-61
2022/12/01 09:30:38;;;;;;;58.75;26.23;;;3.00;99.90;;;;;;5056894;28;20318;-60
2022/12/01 09:33:05;;;;;;;53.13;25.02;;;3.00;99.90;;;;;;5057083;28;20208;-61
2022/12/01 09:35:33;;;;;;;53.10;24.75;;;3.10;99.90;;;;;;5057245;28;20266;-61
2022/12/01 09:38:00;;;;;;;56.28;26.42;;;3.10;99.90;;;;;;5058018;28;20228;-60
2022/12/01 09:40:36;;;;;;;57.97;27.30;;;3.20;99.90;;;;;;5057223;28;20218;-60
2022/12/01 09:43:05;;;;;;;54.38;25.77;;;3.30;99.90;;;;;;5057318;28;20560;-61
2022/12/01 09:45:38;;;;;;;52.22;24.83;;;3.40;99.90;;;;;;5057696;28;20205;-61
2022/12/01 09:48:07;;;;;;;64.15;28.70;;;3.40;99.90;;;;;;5057277;28;20653;-61
2022/12/01 09:50:36;;;;;;;62.85;26.65;;;3.40;99.90;;;;;;5057787;28;20230;-60
2022/12/01 09:53:07;;;;;;;61.85;25.77;;;3.40;99.90;;;;;;5057739;28;20547;-61
2022/12/01 09:55:35;;;;;;;59.33;27.63;;;3.30;99.90;;;;;;5058254;28;20285;-61
2022/12/01 09:58:04;;;;;;;57.80;25.65;;;3.20;99.90;;;;;;5059120;28;20206;-60
2022/12/01 10:00:35;;;;;;;45.42;22.67;;;3.10;99.90;;;;;;5059675;28;20782;-61
2022/12/01 10:03:16;;;;;;;53.13;25.15;;;3.00;99.90;;;;;;5058030;28;20182;-61
2022/12/01 10:05:48;;;;;;;46.83;25.85;;;3.00;99.90;;;;;;5055877;28;20656;-61
2022/12/01 10:08:19;;;;;;;64.65;26.05;;;3.00;99.90;;;;;;5055043;28;20189;-61
2022/12/01 10:10:48;;;;;;;53.08;25.58;;;3.10;99.90;;;;;;5055585;28;20226;-62
2022/12/01 10:13:19;;;;;;;45.03;23.67;;;3.10;99.90;;;;;;5055332;28;20206;-61
2022/12/01 10:15:53;;;;;;;54.47;24.17;;;3.10;99.90;;;;;;5055510;28;20213;-62
2022/12/01 10:18:33;;;;;;;54.63;27.63;;;3.10;99.90;;;;;;5055458;28;20204;-62
2022/12/01 10:21:11;;;;;;;53.40;23.27;;;3.10;99.90;;;;;;5054754;28;20221;-61
2022/12/01 10:23:51;;;;;;;58.88;25.30;;;3.20;99.90;;;;;;5054309;28;20660;-61
2022/12/01 10:26:25;;;;;;;57.83;25.40;;;3.30;99.90;;;;;;5054844;28;20288;-62
2022/12/01 10:29:16;;;;;;;64.43;24.95;;;3.40;99.90;;;;;;5054704;28;20181;-62
2022/12/01 10:31:51;;;;;;;57.53;23.98;;;3.40;99.90;;;;;;5050701;28;20229;-62
2022/12/01 10:34:22;;;;;;;65.30;29.58;;;3.40;99.90;;;;;;5054446;28;20642;-62
2022/12/01 10:36:50;;;;;;;69.00;28.92;;;3.40;99.90;;;;;;5054757;28;20197;-62
2022/12/01 10:39:22;;;;;;;62.00;28.55;;;3.40;99.90;;;;;;5054129;28;20575;-62
2022/12/01 10:41:50;;;;;;;62.05;27.65;;;3.40;99.90;;;;;;5054614;28;20217;-62
2022/12/01 10:44:19;;;;;;;62.05;28.00;;;3.30;99.90;;;;;;5055151;28;20213;-62
2022/12/01 10:46:49;;;;;;;58.33;24.00;;;3.30;99.90;;;;;;5054458;28;20210;-61
2022/12/01 10:49:17;;;;;;;58.38;26.27;;;3.30;99.90;;;;;;5054467;28;20202;-61
2022/12/01 10:51:51;;;;;;;61.08;26.08;;;3.30;99.90;;;;;;5054364;28;20225;-62
2022/12/01 10:54:20;;;;;;;54.58;24.98;;;3.20;99.90;;;;;;5053595;28;20605;-60
2022/12/01 10:56:48;;;;;;;53.33;25.58;;;3.20;99.90;;;;;;5053815;28;20212;-61
2022/12/01 10:59:26;;;;;;;60.65;26.77;;;3.20;99.90;;;;;;5053773;28;20209;-62
2022/12/01 11:01:54;;;;;;;55.05;25.55;;;3.20;99.90;;;;;;5053803;28;20189;-62
2022/12/01 11:04:44;;;;;;;52.03;25.48;;;3.10;99.90;;;;;;5053680;28;20301;-61
2022/12/01 11:07:18;;;;;;;66.20;28.20;;;3.20;99.90;;;;;;5053897;28;20281;-61
2022/12/01 11:09:47;;;;;;;63.03;26.13;;;3.10;99.90;;;;;;5052954;28;20229;-60
2022/12/01 11:12:19;;;;;;;70.38;28.92;;;3.10;99.90;;;;;;5053573;28;20233;-61
2022/12/01 11:14:49;;;;;;;58.50;26.05;;;3.10;99.90;;;;;;5053131;28;20186;-61
2022/12/01 11:17:25;;;;;;;58.03;27.75;;;3.10;99.90;;;;;;5053144;28;20600;-61
2022/12/01 11:19:52;;;;;;;67.55;26.73;;;3.20;99.90;;;;;;5053030;28;20224;-60
2022/12/01 11:22:22;;;;;;;71.05;29.10;;;3.20;99.90;;;;;;5052722;28;20208;-60
2022/12/01 11:25:01;;;;;;;61.45;28.10;;;3.20;99.90;;;;;;5054328;28;20190;-60
2022/12/01 11:27:31;;;;;;;47.15;24.58;;;3.20;99.90;;;;;;5053254;28;20576;-61
2022/12/01 11:30:01;;;;;;;63.85;26.77;;;3.20;99.90;;;;;;5053221;28;20221;-60
2022/12/01 11:32:30;;;;;;;58.40;26.65;;;3.20;99.90;;;;;;5053224;28;20214;-59
2022/12/01 11:35:00;;;;;;;76.38;31.10;;;3.30;99.90;;;;;;5054081;28;20240;-61
2022/12/01 11:37:32;;;;;;;59.60;28.05;;;3.30;99.90;;;;;;5053080;28;20210;-62
2022/12/01 11:40:07;;;;;;;63.22;28.75;;;3.30;99.90;;;;;;5053972;28;20225;-62
2022/12/01 11:42:35;;;;;;;56.17;25.98;;;3.40;99.90;;;;;;5053526;28;20188;-61
2022/12/01 11:45:07;;;;;;;62.83;26.55;;;3.40;99.90;;;;;;5053688;28;20216;-62
2022/12/01 11:47:33;;;;;;;54.70;25.80;;;3.40;99.90;;;;;;5053460;28;20658;-61
2022/12/01 11:50:02;;;;;;;57.25;26.77;;;3.40;99.90;;;;;;5052866;28;20709;-61
2022/12/01 11:52:32;;;;;;;57.67;26.20;;;3.50;99.90;;;;;;5052514;28;20225;-62
2022/12/01 11:55:02;;;;;;;50.58;22.90;;;3.60;99.90;;;;;;5052617;28;20205;-60
2022/12/01 11:57:30;;;;;;;54.20;23.60;;;3.70;99.90;;;;;;5052837;28;20192;-61
2022/12/01 11:59:57;;;;;;;64.05;28.20;;;3.70;99.90;;;;;;5052987;28;20229;-60
2022/12/01 12:02:33;;;;;;;54.40;23.77;;;3.70;99.90;;;;;;5052650;28;20687;-62
2022/12/01 12:05:11;;;;;;;53.92;25.20;;;3.60;99.90;;;;;;5052856;28;20640;-61
2022/12/01 12:07:46;;;;;;;53.20;25.60;;;3.60;99.90;;;;;;5053119;28;20280;-62
2022/12/01 12:10:29;;;;;;;57.70;25.23;;;3.60;99.90;;;;;;5052267;28;20225;-60
2022/12/01 12:13:06;;;;;;;54.40;23.00;;;3.60;99.90;;;;;;5052854;28;20182;-61
2022/12/01 12:15:45;;;;;;;56.05;23.42;;;3.50;99.90;;;;;;5052970;28;20261;-62
2022/12/01 12:18:30;;;;;;;55.00;25.38;;;3.50;99.90;;;;;;5052371;28;20194;-61
2022/12/01 12:21:08;;;;;;;62.90;27.15;;;3.50;99.90;;;;;;5052077;28;20289;-61
2022/12/01 12:24:01;;;;;;;65.78;25.50;;;3.50;99.90;;;;;;5052672;28;20185;-62
2022/12/01 12:26:30;;;;;;;60.20;24.60;;;3.50;99.90;;;;;;5052783;28;20206;-62
2022/12/01 12:29:14;;;;;;;56.92;27.20;;;3.50;99.90;;;;;;5052604;28;20271;-60
2022/12/01 12:31:53;;;;;;;56.70;25.60;;;3.60;99.90;;;;;;5054834;28;20216;-62
2022/12/01 12:34:38;;;;;;;56.63;25.00;;;3.70;99.90;;;;;;5057196;28;20190;-61
2022/12/01 12:37:15;;;;;;;53.83;25.02;;;3.70;99.90;;;;;;5056714;28;20204;-61
2022/12/01 12:40:06;;;;;;;53.03;24.40;;;3.60;99.90;;;;;;5056558;28;20252;-60
2022/12/01 12:42:46;;;;;;;59.63;25.27;;;3.50;99.90;;;;;;5056317;28;20662;-62
2022/12/01 12:45:24;;;;;;;58.30;24.45;;;3.50;99.90;;;;;;5056692;28;20192;-63
2022/12/01 12:48:16;;;;;;;56.28;24.10;;;3.40;99.90;;;;;;5057315;28;20182;-61
2022/12/01 12:50:51;;;;;;;48.10;22.42;;;3.40;99.90;;;;;;5057177;28;20721;-60
2022/12/01 12:53:22;;;;;;;65.07;25.88;;;3.40;99.90;;;;;;5058867;28;20272;-61
2022/12/01 12:55:52;;;;;;;56.88;25.45;;;3.40;99.90;;;;;;5057419;28;20201;-62
2022/12/01 12:58:23;;;;;;;53.83;23.00;;;3.30;99.90;;;;;;5056572;28;20206;-62